sensor_id;sensor_type;location;lat;lon;timestamp;P1;durP1;ratioP1;P2;durP2;ratioP2
21521;SDS011;10922;45.572;10.002;2023-03-12T00:01:28;13.47;;;5.57;;
21521;SDS011;10922;45.572;10.002;2023-03-12T00:03:57;14.87;;;6.40;;
21521;SDS011;10922;45.572;10.002;2023-03-12T00:06:25;13.87;;;5.30;;
21521;SDS011;10922;45.572;10.002;2023-03-12T00:08:50;15.63;;;5.07;;
21521;SDS011;10922;45.572;10.002;2023-03-12T00:11:18;17.23;;;5.77;;
21521;SDS011;10922;45.572;10.002;2023-03-12T00:13:49;23.37;;;5.60;;
21521;SDS011;10922;45.572;10.002;2023-03-12T00:16:15;17.37;;;5.60;;
21521;SDS011;10922;45.572;10.002;2023-03-12T00:18:42;10.60;;;4.63;;
21521;SDS011;10922;45.572;10.002;2023-03-12T00:21:08;11.13;;;5.67;;
21521;SDS011;10922;45.572;10.002;2023-03-12T00:23:34;16.53;;;5.30;;
21521;SDS011;10922;45.572;10.002;2023-03-12T00:26:01;14.77;;;5.33;;
21521;SDS011;10922;45.572;10.002;2023-03-12T00:28:28;10.90;;;4.90;;
21521;SDS011;10922;45.572;10.002;2023-03-12T00:30:54;15.37;;;5.07;;
21521;SDS011;10922;45.572;10.002;2023-03-12T00:33:22;10.40;;;4.60;;
21521;SDS011;10922;45.572;10.002;2023-03-12T00:35:49;10.87;;;4.77;;
21521;SDS011;10922;45.572;10.002;2023-03-12T00:38:14;13.63;;;4.50;;
21521;SDS011;10922;45.572;10.002;2023-03-12T00:40:40;13.67;;;4.80;;
21521;SDS011;10922;45.572;10.002;2023-03-12T00:43:06;7.80;;;4.43;;
21521;SDS011;10922;45.572;10.002;2023-03-12T00:45:32;14.90;;;5.20;;
21521;SDS011;10922;45.572;10.002;2023-03-12T00:47:57;10.10;;;5.03;;
21521;SDS011;10922;45.572;10.002;2023-03-12T00:50:23;11.27;;;4.23;;
21521;SDS011;10922;45.572;10.002;2023-03-12T00:52:49;13.00;;;5.20;;
21521;SDS011;10922;45.572;10.002;2023-03-12T00:55:15;12.17;;;4.43;;
21521;SDS011;10922;45.572;10.002;2023-03-12T00:57:40;13.50;;;4.33;;
21521;SDS011;10922;45.572;10.002;2023-03-12T01:00:06;11.73;;;4.97;;
21521;SDS011;10922;45.572;10.002;2023-03-12T01:02:34;6.53;;;3.83;;
21521;SDS011;10922;45.572;10.002;2023-03-12T01:05:01;9.70;;;4.70;;
21521;SDS011;10922;45.572;10.002;2023-03-12T01:07:27;15.20;;;4.13;;
21521;SDS011;10922;45.572;10.002;2023-03-12T01:09:53;10.57;;;4.73;;
21521;SDS011;10922;45.572;10.002;2023-03-12T01:12:20;9.80;;;4.50;;
21521;SDS011;10922;45.572;10.002;2023-03-12T01:14:45;16.10;;;5.47;;
21521;SDS011;10922;45.572;10.002;2023-03-12T01:17:11;10.47;;;4.53;;
21521;SDS011;10922;45.572;10.002;2023-03-12T01:19:37;11.03;;;4.33;;
21521;SDS011;10922;45.572;10.002;2023-03-12T01:22:02;12.73;;;4.17;;
21521;SDS011;10922;45.572;10.002;2023-03-12T01:24:28;13.43;;;4.47;;
21521;SDS011;10922;45.572;10.002;2023-03-12T01:26:54;14.77;;;5.20;;
21521;SDS011;10922;45.572;10.002;2023-03-12T01:29:20;10.77;;;5.37;;
21521;SDS011;10922;45.572;10.002;2023-03-12T01:31:46;14.93;;;5.33;;
21521;SDS011;10922;45.572;10.002;2023-03-12T01:34:12;12.13;;;5.20;;
21521;SDS011;10922;45.572;10.002;2023-03-12T01:36:38;13.87;;;5.23;;
21521;SDS011;10922;45.572;10.002;2023-03-12T01:39:03;11.47;;;5.20;;
21521;SDS011;10922;45.572;10.002;2023-03-12T01:41:30;7.83;;;4.47;;
21521;SDS011;10922;45.572;10.002;2023-03-12T01:44:00;10.73;;;4.40;;
21521;SDS011;10922;45.572;10.002;2023-03-12T01:51:40;12.87;;;4.80;;
21521;SDS011;10922;45.572;10.002;2023-03-12T01:57:32;11.50;;;4.53;;
21521;SDS011;10922;45.572;10.002;2023-03-12T02:00:02;6.53;;;4.40;;
21521;SDS011;10922;45.572;10.002;2023-03-12T02:02:36;14.13;;;4.60;;
21521;SDS011;10922;45.572;10.002;2023-03-12T02:05:07;9.43;;;4.27;;
21521;SDS011;10922;45.572;10.002;2023-03-12T02:07:53;15.57;;;4.97;;
21521;SDS011;10922;45.572;10.002;2023-03-12T02:10:20;12.13;;;4.93;;
21521;SDS011;10922;45.572;10.002;2023-03-12T02:12:46;12.93;;;5.20;;
21521;SDS011;10922;45.572;10.002;2023-03-12T02:15:12;12.37;;;5.00;;
21521;SDS011;10922;45.572;10.002;2023-03-12T02:17:37;13.37;;;4.83;;
21521;SDS011;10922;45.572;10.002;2023-03-12T02:22:50;12.57;;;4.47;;
21521;SDS011;10922;45.572;10.002;2023-03-12T02:25:41;13.47;;;4.80;;
21521;SDS011;10922;45.572;10.002;2023-03-12T02:28:13;10.03;;;4.50;;
21521;SDS011;10922;45.572;10.002;2023-03-12T02:30:41;13.37;;;5.63;;
21521;SDS011;10922;45.572;10.002;2023-03-12T02:33:11;13.13;;;5.10;;
21521;SDS011;10922;45.572;10.002;2023-03-12T02:35:39;16.90;;;7.13;;
21521;SDS011;10922;45.572;10.002;2023-03-12T02:38:27;11.83;;;4.77;;
21521;SDS011;10922;45.572;10.002;2023-03-12T02:43:46;13.40;;;4.90;;
21521;SDS011;10922;45.572;10.002;2023-03-12T03:07:15;12.10;;;5.33;;
21521;SDS011;10922;45.572;10.002;2023-03-12T03:09:41;11.27;;;5.53;;
21521;SDS011;10922;45.572;10.002;2023-03-12T03:12:07;10.10;;;5.10;;
21521;SDS011;10922;45.572;10.002;2023-03-12T03:14:32;12.60;;;5.43;;
21521;SDS011;10922;45.572;10.002;2023-03-12T03:16:58;15.23;;;5.67;;
21521;SDS011;10922;45.572;10.002;2023-03-12T03:19:24;9.13;;;5.57;;
21521;SDS011;10922;45.572;10.002;2023-03-12T03:21:49;13.87;;;5.93;;
21521;SDS011;10922;45.572;10.002;2023-03-12T03:24:15;9.77;;;5.50;;
21521;SDS011;10922;45.572;10.002;2023-03-12T03:26:41;11.77;;;5.27;;
21521;SDS011;10922;45.572;10.002;2023-03-12T03:29:06;12.13;;;6.27;;
21521;SDS011;10922;45.572;10.002;2023-03-12T03:31:32;12.43;;;5.93;;
21521;SDS011;10922;45.572;10.002;2023-03-12T03:33:58;11.80;;;5.67;;
21521;SDS011;10922;45.572;10.002;2023-03-12T03:36:24;9.80;;;5.20;;
21521;SDS011;10922;45.572;10.002;2023-03-12T03:38:49;13.27;;;6.50;;
21521;SDS011;10922;45.572;10.002;2023-03-12T03:41:16;12.90;;;5.93;;
21521;SDS011;10922;45.572;10.002;2023-03-12T03:43:42;12.90;;;5.53;;
21521;SDS011;10922;45.572;10.002;2023-03-12T03:46:09;9.97;;;5.37;;
21521;SDS011;10922;45.572;10.002;2023-03-12T03:48:36;12.17;;;6.13;;
21521;SDS011;10922;45.572;10.002;2023-03-12T03:51:02;12.00;;;6.10;;
21521;SDS011;10922;45.572;10.002;2023-03-12T03:53:30;14.33;;;5.43;;
21521;SDS011;10922;45.572;10.002;2023-03-12T03:55:56;14.70;;;6.30;;
21521;SDS011;10922;45.572;10.002;2023-03-12T03:58:22;14.93;;;5.87;;
21521;SDS011;10922;45.572;10.002;2023-03-12T04:00:48;9.80;;;5.07;;
21521;SDS011;10922;45.572;10.002;2023-03-12T04:03:14;14.53;;;5.50;;
21521;SDS011;10922;45.572;10.002;2023-03-12T04:05:39;8.37;;;5.83;;
21521;SDS011;10922;45.572;10.002;2023-03-12T04:08:09;8.77;;;5.53;;
21521;SDS011;10922;45.572;10.002;2023-03-12T04:10:36;11.73;;;6.00;;
21521;SDS011;10922;45.572;10.002;2023-03-12T04:13:01;9.27;;;5.53;;
21521;SDS011;10922;45.572;10.002;2023-03-12T04:15:27;12.30;;;5.83;;
21521;SDS011;10922;45.572;10.002;2023-03-12T04:17:53;12.03;;;6.23;;
21521;SDS011;10922;45.572;10.002;2023-03-12T04:20:20;12.53;;;5.53;;
21521;SDS011;10922;45.572;10.002;2023-03-12T04:22:46;9.33;;;5.57;;
21521;SDS011;10922;45.572;10.002;2023-03-12T04:25:11;11.57;;;5.73;;
21521;SDS011;10922;45.572;10.002;2023-03-12T04:27:37;9.00;;;5.97;;
21521;SDS011;10922;45.572;10.002;2023-03-12T04:30:03;9.80;;;5.30;;
21521;SDS011;10922;45.572;10.002;2023-03-12T04:32:29;11.30;;;5.90;;
21521;SDS011;10922;45.572;10.002;2023-03-12T04:34:54;13.33;;;6.00;;
21521;SDS011;10922;45.572;10.002;2023-03-12T04:37:20;11.53;;;5.77;;
21521;SDS011;10922;45.572;10.002;2023-03-12T04:39:46;10.87;;;6.00;;
21521;SDS011;10922;45.572;10.002;2023-03-12T04:42:12;9.70;;;5.87;;
21521;SDS011;10922;45.572;10.002;2023-03-12T04:44:37;13.63;;;6.10;;
21521;SDS011;10922;45.572;10.002;2023-03-12T04:47:05;10.40;;;5.93;;
21521;SDS011;10922;45.572;10.002;2023-03-12T04:49:30;11.57;;;6.30;;
21521;SDS011;10922;45.572;10.002;2023-03-12T04:51:56;12.27;;;5.47;;
21521;SDS011;10922;45.572;10.002;2023-03-12T04:54:22;13.67;;;5.80;;
21521;SDS011;10922;45.572;10.002;2023-03-12T04:56:48;12.47;;;5.57;;
21521;SDS011;10922;45.572;10.002;2023-03-12T04:59:14;11.00;;;6.10;;
21521;SDS011;10922;45.572;10.002;2023-03-12T05:01:41;9.27;;;5.73;;
21521;SDS011;10922;45.572;10.002;2023-03-12T05:04:07;9.97;;;5.80;;
21521;SDS011;10922;45.572;10.002;2023-03-12T05:06:33;8.43;;;6.47;;
21521;SDS011;10922;45.572;10.002;2023-03-12T05:08:59;10.67;;;5.73;;
21521;SDS011;10922;45.572;10.002;2023-03-12T05:11:25;9.90;;;6.17;;
21521;SDS011;10922;45.572;10.002;2023-03-12T05:13:51;9.80;;;5.57;;
21521;SDS011;10922;45.572;10.002;2023-03-12T05:16:17;10.27;;;5.80;;
21521;SDS011;10922;45.572;10.002;2023-03-12T05:18:43;10.80;;;5.77;;
21521;SDS011;10922;45.572;10.002;2023-03-12T05:21:13;9.13;;;5.73;;
21521;SDS011;10922;45.572;10.002;2023-03-12T05:23:41;7.70;;;5.10;;
21521;SDS011;10922;45.572;10.002;2023-03-12T05:26:29;7.77;;;5.10;;
21521;SDS011;10922;45.572;10.002;2023-03-12T05:28:55;8.47;;;5.13;;
21521;SDS011;10922;45.572;10.002;2023-03-12T05:31:22;10.10;;;5.83;;
21521;SDS011;10922;45.572;10.002;2023-03-12T05:33:48;12.77;;;5.77;;
21521;SDS011;10922;45.572;10.002;2023-03-12T05:36:14;7.93;;;5.03;;
21521;SDS011;10922;45.572;10.002;2023-03-12T05:38:40;11.27;;;5.87;;
21521;SDS011;10922;45.572;10.002;2023-03-12T05:41:06;8.67;;;5.03;;
21521;SDS011;10922;45.572;10.002;2023-03-12T05:43:43;13.20;;;5.70;;
21521;SDS011;10922;45.572;10.002;2023-03-12T05:46:09;8.07;;;5.23;;
21521;SDS011;10922;45.572;10.002;2023-03-12T05:48:34;10.37;;;5.63;;
21521;SDS011;10922;45.572;10.002;2023-03-12T05:51:00;9.17;;;5.33;;
21521;SDS011;10922;45.572;10.002;2023-03-12T05:53:26;9.17;;;5.20;;
21521;SDS011;10922;45.572;10.002;2023-03-12T05:55:51;8.60;;;5.17;;
21521;SDS011;10922;45.572;10.002;2023-03-12T05:58:17;7.20;;;5.23;;
21521;SDS011;10922;45.572;10.002;2023-03-12T06:00:43;8.67;;;5.10;;
21521;SDS011;10922;45.572;10.002;2023-03-12T06:03:10;10.73;;;5.73;;
21521;SDS011;10922;45.572;10.002;2023-03-12T06:05:36;11.10;;;5.70;;
21521;SDS011;10922;45.572;10.002;2023-03-12T06:08:02;12.47;;;5.67;;
21521;SDS011;10922;45.572;10.002;2023-03-12T06:10:29;7.77;;;4.93;;
21521;SDS011;10922;45.572;10.002;2023-03-12T06:12:54;10.17;;;5.73;;
21521;SDS011;10922;45.572;10.002;2023-03-12T06:15:20;8.80;;;5.00;;
21521;SDS011;10922;45.572;10.002;2023-03-12T06:17:46;11.90;;;5.80;;
21521;SDS011;10922;45.572;10.002;2023-03-12T06:20:12;8.60;;;6.17;;
21521;SDS011;10922;45.572;10.002;2023-03-12T06:22:38;9.70;;;5.77;;
21521;SDS011;10922;45.572;10.002;2023-03-12T06:25:03;9.30;;;5.13;;
21521;SDS011;10922;45.572;10.002;2023-03-12T06:27:30;8.27;;;5.53;;
21521;SDS011;10922;45.572;10.002;2023-03-12T06:29:56;9.00;;;5.23;;
21521;SDS011;10922;45.572;10.002;2023-03-12T06:32:21;9.47;;;5.20;;
21521;SDS011;10922;45.572;10.002;2023-03-12T06:34:49;8.97;;;4.67;;
21521;SDS011;10922;45.572;10.002;2023-03-12T06:37:15;12.97;;;5.87;;
21521;SDS011;10922;45.572;10.002;2023-03-12T06:39:41;7.07;;;5.10;;
21521;SDS011;10922;45.572;10.002;2023-03-12T06:42:07;8.83;;;5.57;;
21521;SDS011;10922;45.572;10.002;2023-03-12T06:44:32;12.00;;;5.20;;
21521;SDS011;10922;45.572;10.002;2023-03-12T06:46:58;7.63;;;5.03;;
21521;SDS011;10922;45.572;10.002;2023-03-12T06:49:25;11.80;;;5.73;;
21521;SDS011;10922;45.572;10.002;2023-03-12T06:51:56;7.03;;;5.00;;
21521;SDS011;10922;45.572;10.002;2023-03-12T06:54:22;8.07;;;4.97;;
21521;SDS011;10922;45.572;10.002;2023-03-12T06:56:48;6.40;;;4.70;;
21521;SDS011;10922;45.572;10.002;2023-03-12T06:59:13;7.37;;;4.90;;
21521;SDS011;10922;45.572;10.002;2023-03-12T07:01:39;7.37;;;5.03;;
21521;SDS011;10922;45.572;10.002;2023-03-12T07:04:06;8.43;;;5.27;;
21521;SDS011;10922;45.572;10.002;2023-03-12T07:06:31;8.00;;;5.17;;
21521;SDS011;10922;45.572;10.002;2023-03-12T07:08:57;9.43;;;4.80;;
21521;SDS011;10922;45.572;10.002;2023-03-12T07:11:23;8.77;;;4.60;;
21521;SDS011;10922;45.572;10.002;2023-03-12T07:13:48;8.07;;;5.03;;
21521;SDS011;10922;45.572;10.002;2023-03-12T07:16:15;7.80;;;4.57;;
21521;SDS011;10922;45.572;10.002;2023-03-12T07:18:41;8.27;;;4.40;;
21521;SDS011;10922;45.572;10.002;2023-03-12T07:21:06;6.90;;;4.77;;
21521;SDS011;10922;45.572;10.002;2023-03-12T07:23:32;10.87;;;5.20;;
21521;SDS011;10922;45.572;10.002;2023-03-12T07:25:58;8.77;;;4.50;;
21521;SDS011;10922;45.572;10.002;2023-03-12T07:28:23;5.57;;;3.90;;
21521;SDS011;10922;45.572;10.002;2023-03-12T07:30:49;5.13;;;3.83;;
21521;SDS011;10922;45.572;10.002;2023-03-12T07:33:15;5.50;;;4.10;;
21521;SDS011;10922;45.572;10.002;2023-03-12T07:35:43;4.77;;;3.57;;
21521;SDS011;10922;45.572;10.002;2023-03-12T07:38:10;5.97;;;3.63;;
21521;SDS011;10922;45.572;10.002;2023-03-12T07:40:36;5.20;;;2.97;;
21521;SDS011;10922;45.572;10.002;2023-03-12T07:43:02;4.23;;;3.17;;
21521;SDS011;10922;45.572;10.002;2023-03-12T07:45:29;5.97;;;3.67;;
21521;SDS011;10922;45.572;10.002;2023-03-12T07:47:55;4.77;;;3.70;;
21521;SDS011;10922;45.572;10.002;2023-03-12T07:50:20;4.20;;;3.77;;
21521;SDS011;10922;45.572;10.002;2023-03-12T07:52:46;4.13;;;3.70;;
21521;SDS011;10922;45.572;10.002;2023-03-12T07:55:12;4.83;;;3.57;;
21521;SDS011;10922;45.572;10.002;2023-03-12T07:57:38;5.87;;;3.70;;
21521;SDS011;10922;45.572;10.002;2023-03-12T08:00:04;4.23;;;3.20;;
21521;SDS011;10922;45.572;10.002;2023-03-12T08:02:34;3.37;;;3.03;;
21521;SDS011;10922;45.572;10.002;2023-03-12T08:05:01;5.97;;;3.30;;
21521;SDS011;10922;45.572;10.002;2023-03-12T08:07:27;6.07;;;3.40;;
21521;SDS011;10922;45.572;10.002;2023-03-12T08:09:57;3.80;;;2.63;;
21521;SDS011;10922;45.572;10.002;2023-03-12T08:12:23;2.90;;;2.70;;
21521;SDS011;10922;45.572;10.002;2023-03-12T08:14:50;3.13;;;2.63;;
21521;SDS011;10922;45.572;10.002;2023-03-12T08:17:15;3.73;;;3.30;;
21521;SDS011;10922;45.572;10.002;2023-03-12T08:19:41;3.17;;;2.80;;
21521;SDS011;10922;45.572;10.002;2023-03-12T08:22:07;3.57;;;3.03;;
21521;SDS011;10922;45.572;10.002;2023-03-12T08:24:33;2.90;;;2.67;;
21521;SDS011;10922;45.572;10.002;2023-03-12T08:26:59;3.23;;;2.90;;
21521;SDS011;10922;45.572;10.002;2023-03-12T08:29:25;4.17;;;2.90;;
21521;SDS011;10922;45.572;10.002;2023-03-12T08:31:51;4.30;;;3.20;;
21521;SDS011;10922;45.572;10.002;2023-03-12T08:34:17;3.17;;;2.90;;
21521;SDS011;10922;45.572;10.002;2023-03-12T08:36:43;3.30;;;3.10;;
21521;SDS011;10922;45.572;10.002;2023-03-12T08:39:08;3.10;;;2.80;;
21521;SDS011;10922;45.572;10.002;2023-03-12T08:41:34;5.00;;;2.60;;
21521;SDS011;10922;45.572;10.002;2023-03-12T09:09:44;3.00;;;2.73;;
21521;SDS011;10922;45.572;10.002;2023-03-12T09:12:10;3.33;;;2.93;;
21521;SDS011;10922;45.572;10.002;2023-03-12T09:14:36;2.63;;;2.43;;
21521;SDS011;10922;45.572;10.002;2023-03-12T09:17:01;2.87;;;2.60;;
21521;SDS011;10922;45.572;10.002;2023-03-12T09:19:27;2.97;;;2.77;;
21521;SDS011;10922;45.572;10.002;2023-03-12T09:21:53;2.90;;;2.60;;
21521;SDS011;10922;45.572;10.002;2023-03-12T09:24:19;3.63;;;2.37;;
21521;SDS011;10922;45.572;10.002;2023-03-12T09:26:45;2.97;;;2.67;;
21521;SDS011;10922;45.572;10.002;2023-03-12T09:29:11;3.50;;;2.87;;
21521;SDS011;10922;45.572;10.002;2023-03-12T09:31:37;8.30;;;3.27;;
21521;SDS011;10922;45.572;10.002;2023-03-12T09:34:03;2.97;;;2.77;;
21521;SDS011;10922;45.572;10.002;2023-03-12T09:36:30;4.10;;;2.80;;
21521;SDS011;10922;45.572;10.002;2023-03-12T09:38:57;2.60;;;2.40;;
21521;SDS011;10922;45.572;10.002;2023-03-12T09:41:25;5.57;;;2.87;;
21521;SDS011;10922;45.572;10.002;2023-03-12T09:46:53;5.20;;;2.93;;
21521;SDS011;10922;45.572;10.002;2023-03-12T09:49:25;5.53;;;3.03;;
21521;SDS011;10922;45.572;10.002;2023-03-12T09:52:12;6.43;;;4.27;;
21521;SDS011;10922;45.572;10.002;2023-03-12T09:55:06;4.57;;;3.20;;
21521;SDS011;10922;45.572;10.002;2023-03-12T09:57:38;7.60;;;5.30;;
21521;SDS011;10922;45.572;10.002;2023-03-12T10:00:06;3.57;;;3.27;;
21521;SDS011;10922;45.572;10.002;2023-03-12T10:25:14;4.47;;;3.10;;
21521;SDS011;10922;45.572;10.002;2023-03-12T10:27:51;3.60;;;3.23;;
21521;SDS011;10922;45.572;10.002;2023-03-12T10:30:19;5.40;;;3.50;;
21521;SDS011;10922;45.572;10.002;2023-03-12T10:32:49;3.80;;;3.40;;
21521;SDS011;10922;45.572;10.002;2023-03-12T10:35:21;3.57;;;3.13;;
21521;SDS011;10922;45.572;10.002;2023-03-12T10:37:58;3.47;;;3.00;;
21521;SDS011;10922;45.572;10.002;2023-03-12T10:40:29;3.30;;;3.00;;
21521;SDS011;10922;45.572;10.002;2023-03-12T10:42:58;3.90;;;3.10;;
21521;SDS011;10922;45.572;10.002;2023-03-12T10:47:54;3.67;;;3.37;;
21521;SDS011;10922;45.572;10.002;2023-03-12T10:50:30;4.60;;;3.37;;
21521;SDS011;10922;45.572;10.002;2023-03-12T10:55:57;4.50;;;3.67;;
21521;SDS011;10922;45.572;10.002;2023-03-12T10:58:24;8.63;;;3.17;;
21521;SDS011;10922;45.572;10.002;2023-03-12T11:00:59;3.63;;;3.33;;
21521;SDS011;10922;45.572;10.002;2023-03-12T11:03:27;3.70;;;3.40;;
21521;SDS011;10922;45.572;10.002;2023-03-12T11:06:01;4.00;;;3.60;;
21521;SDS011;10922;45.572;10.002;2023-03-12T11:08:33;3.50;;;3.20;;
21521;SDS011;10922;45.572;10.002;2023-03-12T11:11:01;3.47;;;3.27;;
21521;SDS011;10922;45.572;10.002;2023-03-12T11:13:29;3.57;;;3.07;;
21521;SDS011;10922;45.572;10.002;2023-03-12T11:19:03;5.23;;;4.43;;
21521;SDS011;10922;45.572;10.002;2023-03-12T11:21:30;4.23;;;3.53;;
21521;SDS011;10922;45.572;10.002;2023-03-12T11:29:24;3.87;;;3.10;;
21521;SDS011;10922;45.572;10.002;2023-03-12T11:34:43;4.60;;;3.50;;
21521;SDS011;10922;45.572;10.002;2023-03-12T11:37:14;3.97;;;3.10;;
21521;SDS011;10922;45.572;10.002;2023-03-12T11:43:02;4.30;;;3.53;;
21521;SDS011;10922;45.572;10.002;2023-03-12T11:48:31;6.30;;;3.40;;
21521;SDS011;10922;45.572;10.002;2023-03-12T11:57:09;3.43;;;3.20;;
21521;SDS011;10922;45.572;10.002;2023-03-12T12:02:26;3.90;;;3.50;;
21521;SDS011;10922;45.572;10.002;2023-03-12T12:15:50;4.90;;;3.90;;
21521;SDS011;10922;45.572;10.002;2023-03-12T12:32:21;13.68;;;3.70;;
21521;SDS011;10922;45.572;10.002;2023-03-12T12:38:03;6.82;;;3.40;;
21521;SDS011;10922;45.572;10.002;2023-03-12T12:40:41;3.65;;;3.33;;
21521;SDS011;10922;45.572;10.002;2023-03-12T12:45:48;16.08;;;3.78;;
21521;SDS011;10922;45.572;10.002;2023-03-12T12:48:17;3.78;;;3.47;;
21521;SDS011;10922;45.572;10.002;2023-03-12T12:51:02;3.47;;;3.17;;
21521;SDS011;10922;45.572;10.002;2023-03-12T12:56:15;6.88;;;2.97;;
21521;SDS011;10922;45.572;10.002;2023-03-12T12:58:55;3.70;;;3.40;;
21521;SDS011;10922;45.572;10.002;2023-03-12T13:01:23;3.53;;;3.22;;
21521;SDS011;10922;45.572;10.002;2023-03-12T13:03:50;3.35;;;3.03;;
21521;SDS011;10922;45.572;10.002;2023-03-12T13:06:20;3.78;;;3.35;;
21521;SDS011;10922;45.572;10.002;2023-03-12T13:14:11;5.10;;;3.53;;
21521;SDS011;10922;45.572;10.002;2023-03-12T13:17:05;4.32;;;2.75;;
21521;SDS011;10922;45.572;10.002;2023-03-12T13:20:14;3.83;;;3.10;;
21521;SDS011;10922;45.572;10.002;2023-03-12T13:22:58;4.60;;;3.22;;
21521;SDS011;10922;45.572;10.002;2023-03-12T13:25:52;4.25;;;3.25;;
21521;SDS011;10922;45.572;10.002;2023-03-12T13:28:30;3.08;;;2.88;;
21521;SDS011;10922;45.572;10.002;2023-03-12T13:31:31;3.30;;;3.10;;
21521;SDS011;10922;45.572;10.002;2023-03-12T13:33:49;4.10;;;3.00;;
21521;SDS011;10922;45.572;10.002;2023-03-12T13:44:47;7.38;;;4.25;;
21521;SDS011;10922;45.572;10.002;2023-03-12T13:46:53;3.85;;;3.35;;
21521;SDS011;10922;45.572;10.002;2023-03-12T13:49:23;5.75;;;3.70;;
21521;SDS011;10922;45.572;10.002;2023-03-12T13:51:54;4.07;;;3.05;;
21521;SDS011;10922;45.572;10.002;2023-03-12T13:54:30;3.40;;;3.10;;
21521;SDS011;10922;45.572;10.002;2023-03-12T13:57:00;3.50;;;2.97;;
21521;SDS011;10922;45.572;10.002;2023-03-12T13:59:33;3.38;;;3.08;;
21521;SDS011;10922;45.572;10.002;2023-03-12T14:02:02;4.15;;;3.50;;
21521;SDS011;10922;45.572;10.002;2023-03-12T14:04:39;4.28;;;3.60;;
21521;SDS011;10922;45.572;10.002;2023-03-12T14:15:08;4.70;;;3.33;;
21521;SDS011;10922;45.572;10.002;2023-03-12T14:17:41;4.57;;;4.18;;
21521;SDS011;10922;45.572;10.002;2023-03-12T14:20:13;5.18;;;3.20;;
21521;SDS011;10922;45.572;10.002;2023-03-12T14:22:43;5.20;;;3.78;;
21521;SDS011;10922;45.572;10.002;2023-03-12T14:28:13;5.32;;;3.75;;
21521;SDS011;10922;45.572;10.002;2023-03-12T14:33:16;4.82;;;3.47;;
21521;SDS011;10922;45.572;10.002;2023-03-12T14:35:44;4.30;;;3.78;;
21521;SDS011;10922;45.572;10.002;2023-03-12T14:38:16;3.95;;;3.55;;
21521;SDS011;10922;45.572;10.002;2023-03-12T14:43:37;5.15;;;3.80;;
21521;SDS011;10922;45.572;10.002;2023-03-12T14:46:04;5.60;;;3.70;;
21521;SDS011;10922;45.572;10.002;2023-03-12T14:48:38;7.05;;;3.88;;
21521;SDS011;10922;45.572;10.002;2023-03-12T14:51:05;4.78;;;3.72;;
21521;SDS011;10922;45.572;10.002;2023-03-12T14:53:32;5.18;;;3.60;;
21521;SDS011;10922;45.572;10.002;2023-03-12T14:56:00;6.05;;;3.40;;
21521;SDS011;10922;45.572;10.002;2023-03-12T14:58:43;4.40;;;4.00;;
21521;SDS011;10922;45.572;10.002;2023-03-12T15:01:15;5.40;;;3.15;;
21521;SDS011;10922;45.572;10.002;2023-03-12T15:03:51;4.18;;;3.72;;
21521;SDS011;10922;45.572;10.002;2023-03-12T15:06:42;5.88;;;3.88;;
21521;SDS011;10922;45.572;10.002;2023-03-12T15:09:15;5.05;;;3.80;;
21521;SDS011;10922;45.572;10.002;2023-03-12T15:12:01;5.30;;;3.95;;
21521;SDS011;10922;45.572;10.002;2023-03-12T15:14:31;5.55;;;3.95;;
21521;SDS011;10922;45.572;10.002;2023-03-12T15:17:05;4.43;;;3.90;;
21521;SDS011;10922;45.572;10.002;2023-03-12T15:19:32;5.32;;;3.42;;
21521;SDS011;10922;45.572;10.002;2023-03-12T15:22:01;4.85;;;3.60;;
21521;SDS011;10922;45.572;10.002;2023-03-12T15:24:28;4.65;;;3.83;;
21521;SDS011;10922;45.572;10.002;2023-03-12T15:27:46;4.97;;;3.90;;
21521;SDS011;10922;45.572;10.002;2023-03-12T15:29:55;5.05;;;4.25;;
21521;SDS011;10922;45.572;10.002;2023-03-12T15:32:23;4.28;;;3.70;;
21521;SDS011;10922;45.572;10.002;2023-03-12T15:34:50;3.83;;;3.50;;
21521;SDS011;10922;45.572;10.002;2023-03-12T15:37:27;5.47;;;3.80;;
21521;SDS011;10922;45.572;10.002;2023-03-12T15:40:03;5.22;;;3.97;;
21521;SDS011;10922;45.572;10.002;2023-03-12T15:42:36;6.93;;;3.97;;
21521;SDS011;10922;45.572;10.002;2023-03-12T15:45:04;5.47;;;4.35;;
21521;SDS011;10922;45.572;10.002;2023-03-12T15:47:40;8.55;;;4.03;;
21521;SDS011;10922;45.572;10.002;2023-03-12T15:55:30;5.47;;;3.92;;
21521;SDS011;10922;45.572;10.002;2023-03-12T15:57:58;6.22;;;3.70;;
21521;SDS011;10922;45.572;10.002;2023-03-12T16:00:30;5.45;;;4.28;;
21521;SDS011;10922;45.572;10.002;2023-03-12T16:03:13;6.00;;;4.40;;
21521;SDS011;10922;45.572;10.002;2023-03-12T16:05:42;5.15;;;4.18;;
21521;SDS011;10922;45.572;10.002;2023-03-12T16:08:12;6.55;;;4.80;;
21521;SDS011;10922;45.572;10.002;2023-03-12T16:10:44;4.60;;;4.03;;
21521;SDS011;10922;45.572;10.002;2023-03-12T16:13:12;4.32;;;3.95;;
21521;SDS011;10922;45.572;10.002;2023-03-12T16:15:39;7.03;;;4.63;;
21521;SDS011;10922;45.572;10.002;2023-03-12T16:18:10;12.18;;;4.95;;
21521;SDS011;10922;45.572;10.002;2023-03-12T16:20:38;5.07;;;3.78;;
21521;SDS011;10922;45.572;10.002;2023-03-12T16:23:03;5.43;;;3.95;;
21521;SDS011;10922;45.572;10.002;2023-03-12T16:25:29;7.40;;;4.57;;
21521;SDS011;10922;45.572;10.002;2023-03-12T16:27:55;6.75;;;4.00;;
21521;SDS011;10922;45.572;10.002;2023-03-12T16:30:25;4.85;;;3.88;;
21521;SDS011;10922;45.572;10.002;2023-03-12T16:32:53;5.32;;;4.30;;
21521;SDS011;10922;45.572;10.002;2023-03-12T16:35:19;6.55;;;4.50;;
21521;SDS011;10922;45.572;10.002;2023-03-12T16:37:44;5.43;;;4.30;;
21521;SDS011;10922;45.572;10.002;2023-03-12T16:40:11;10.13;;;4.50;;
21521;SDS011;10922;45.572;10.002;2023-03-12T16:42:39;6.80;;;4.25;;
21521;SDS011;10922;45.572;10.002;2023-03-12T16:45:12;7.90;;;5.00;;
21521;SDS011;10922;45.572;10.002;2023-03-12T16:47:39;7.28;;;4.30;;
21521;SDS011;10922;45.572;10.002;2023-03-12T16:50:16;9.07;;;4.53;;
21521;SDS011;10922;45.572;10.002;2023-03-12T16:52:43;7.03;;;4.50;;
21521;SDS011;10922;45.572;10.002;2023-03-12T16:55:12;8.70;;;4.60;;
21521;SDS011;10922;45.572;10.002;2023-03-12T16:57:39;7.10;;;5.25;;
21521;SDS011;10922;45.572;10.002;2023-03-12T17:00:11;6.93;;;4.50;;
21521;SDS011;10922;45.572;10.002;2023-03-12T17:02:44;7.53;;;4.80;;
21521;SDS011;10922;45.572;10.002;2023-03-12T17:05:10;7.47;;;4.83;;
21521;SDS011;10922;45.572;10.002;2023-03-12T17:07:36;6.50;;;5.10;;
21521;SDS011;10922;45.572;10.002;2023-03-12T17:10:04;8.13;;;4.37;;
21521;SDS011;10922;45.572;10.002;2023-03-12T17:12:31;10.03;;;4.87;;
21521;SDS011;10922;45.572;10.002;2023-03-12T17:15:00;10.43;;;4.57;;
21521;SDS011;10922;45.572;10.002;2023-03-12T17:17:28;8.07;;;5.17;;
21521;SDS011;10922;45.572;10.002;2023-03-12T17:19:54;8.83;;;4.27;;
21521;SDS011;10922;45.572;10.002;2023-03-12T17:22:23;8.07;;;5.13;;
21521;SDS011;10922;45.572;10.002;2023-03-12T17:24:49;6.53;;;4.27;;
21521;SDS011;10922;45.572;10.002;2023-03-12T17:27:15;8.03;;;4.50;;
21521;SDS011;10922;45.572;10.002;2023-03-12T17:29:40;6.43;;;4.37;;
21521;SDS011;10922;45.572;10.002;2023-03-12T17:32:06;8.53;;;4.50;;
21521;SDS011;10922;45.572;10.002;2023-03-12T17:34:32;12.77;;;5.33;;
21521;SDS011;10922;45.572;10.002;2023-03-12T17:36:57;10.90;;;4.40;;
21521;SDS011;10922;45.572;10.002;2023-03-12T17:39:24;7.97;;;5.00;;
21521;SDS011;10922;45.572;10.002;2023-03-12T17:41:50;10.93;;;5.83;;
21521;SDS011;10922;45.572;10.002;2023-03-12T17:44:16;9.60;;;5.37;;
21521;SDS011;10922;45.572;10.002;2023-03-12T17:46:42;13.13;;;5.43;;